createdAt,value
2022-11-05T00:00:33.257Z,101677.50
2022-11-05T00:03:20.377Z,101622.03
2022-11-05T00:06:09.276Z,101652.00
2022-11-05T00:08:55.143Z,101661.47
2022-11-05T00:11:44.330Z,101680.16
2022-11-05T00:14:30.387Z,101688.88
2022-11-05T00:16:58.638Z,101685.16
2022-11-05T00:19:28.356Z,101677.06
2022-11-05T00:22:14.097Z,101590.28
2022-11-05T00:24:59.820Z,101686.19
2022-11-05T00:27:28.206Z,101670.84
2022-11-05T00:29:56.474Z,101698.19
2022-11-05T00:32:24.725Z,101677.00
2022-11-05T00:34:54.703Z,101702.25
2022-11-05T00:37:23.036Z,101715.19
2022-11-05T00:39:51.287Z,101712.63
2022-11-05T00:42:37.337Z,101718.53
2022-11-05T00:45:07.672Z,101680.84
2022-11-05T00:47:53.569Z,101727.69
2022-11-05T00:50:24.466Z,101728.31
2022-11-05T00:52:56.755Z,101693.50
2022-11-05T00:55:26.271Z,101667.66
2022-11-05T00:57:54.950Z,101726.06
2022-11-05T01:00:24.636Z,101704.81
2022-11-05T01:02:53.757Z,101695.78
2022-11-05T01:05:23.599Z,101734.06
2022-11-05T01:07:53.472Z,101724.31
2022-11-05T01:10:22.920Z,101694.06
2022-11-05T01:12:51.763Z,101687.78
2022-11-05T01:15:21.459Z,101724.09
2022-11-05T01:17:49.935Z,101751.66
2022-11-05T01:20:18.668Z,101725.63
2022-11-05T01:22:48.544Z,101752.19
2022-11-05T01:25:17.177Z,101718.50
2022-11-05T01:27:46.037Z,101690.63
2022-11-05T01:30:15.330Z,101751.91
2022-11-05T01:32:43.871Z,101717.91
2022-11-05T01:35:15.319Z,101724.06
2022-11-05T01:37:43.892Z,101690.91
2022-11-05T01:40:17.286Z,101732.56
2022-11-05T01:42:46.751Z,101750.44
2022-11-05T01:45:19.856Z,101752.75
2022-11-05T01:48:13.976Z,101746.47
2022-11-05T01:50:47.420Z,101756.56
2022-11-05T01:53:26.880Z,101743.59
2022-11-05T01:56:01.497Z,101677.06
2022-11-05T01:58:35.482Z,101679.72
2022-11-05T02:01:03.872Z,101698.31
2022-11-05T02:03:32.965Z,101694.50
2022-11-05T02:06:04.020Z,101742.13
2022-11-05T02:08:50.411Z,101733.16
2022-11-05T02:11:21.029Z,101708.66
2022-11-05T02:13:50.118Z,101750.56
2022-11-05T02:16:33.324Z,101746.84
2022-11-05T02:19:19.107Z,101699.50
2022-11-05T02:22:49.783Z,101742.75
2022-11-05T02:25:44.083Z,101690.00
2022-11-05T02:28:39.936Z,101727.56
2022-11-05T02:31:16.378Z,101740.03
2022-11-05T02:33:58.346Z,101708.81
2022-11-05T02:36:40.955Z,101712.91
2022-11-05T02:39:22.975Z,101743.16
2022-11-05T02:42:05.196Z,101700.38
2022-11-05T02:44:43.371Z,101716.09
2022-11-05T02:47:25.661Z,101719.25
2022-11-05T02:50:01.738Z,101755.91
2022-11-05T02:52:37.881Z,101718.59
2022-11-05T02:55:15.839Z,101746.25
2022-11-05T02:57:47.789Z,101720.34
2022-11-05T03:00:43.190Z,101734.47
2022-11-05T03:03:19.313Z,101748.63
2022-11-05T03:06:24.011Z,101745.06
2022-11-05T03:09:23.917Z,101745.22
2022-11-05T03:12:02.720Z,101741.03
2022-11-05T03:14:42.105Z,101741.59
2022-11-05T03:17:20.069Z,101751.44
2022-11-05T03:19:56.136Z,101740.16
2022-11-05T03:22:29.781Z,101724.75
2022-11-05T03:25:04.976Z,101758.50
2022-11-05T03:27:38.599Z,101735.50
2022-11-05T03:30:10.654Z,101701.34
2022-11-05T03:32:45.477Z,101757.28
2022-11-05T03:35:23.742Z,101728.22
2022-11-05T03:37:59.110Z,101746.09
2022-11-05T03:40:30.573Z,101733.78
2022-11-05T03:43:01.250Z,101725.44
2022-11-05T03:45:35.655Z,101744.41
2022-11-05T03:48:06.617Z,101744.75
2022-11-05T03:50:43.461Z,101747.47
2022-11-05T03:53:17.604Z,101750.91
2022-11-05T03:55:55.804Z,101749.19
2022-11-05T03:58:25.159Z,101727.09
2022-11-05T04:00:54.218Z,101730.44
2022-11-05T04:03:22.745Z,101760.41
2022-11-05T04:06:06.589Z,101738.22
2022-11-05T04:08:52.452Z,101760.56
2022-11-05T04:11:38.307Z,101734.84
2022-11-05T04:14:06.621Z,101773.06
2022-11-05T04:16:52.503Z,101766.09
2022-11-05T04:19:41.597Z,101764.59
2022-11-05T04:22:28.770Z,101768.91
2022-11-05T04:24:57.060Z,101780.31
2022-11-05T04:27:25.460Z,101748.84
2022-11-05T04:30:11.524Z,101734.19
2022-11-05T04:32:39.744Z,101786.19
2022-11-05T04:35:08.260Z,101779.84
2022-11-05T04:37:37.854Z,101790.03
2022-11-05T04:40:07.618Z,101800.66
2022-11-05T04:42:35.874Z,101811.13
2022-11-05T04:45:04.322Z,101813.06
2022-11-05T04:47:32.579Z,101803.78
2022-11-05T04:50:01.022Z,101797.47
2022-11-05T04:52:29.487Z,101804.22
2022-11-05T04:54:59.101Z,101784.81
2022-11-05T04:57:27.344Z,101792.34
2022-11-05T04:59:56.236Z,101795.59
2022-11-05T05:02:24.707Z,101799.53
2022-11-05T05:04:52.982Z,101799.22
2022-11-05T05:07:21.568Z,101792.94
2022-11-05T05:09:49.884Z,101743.72
2022-11-05T05:12:19.563Z,101809.00
2022-11-05T05:14:50.078Z,101760.72
2022-11-05T05:17:18.684Z,101768.38
2022-11-05T05:20:04.443Z,101800.38
2022-11-05T05:22:33.103Z,101787.09
2022-11-05T05:25:01.350Z,101808.94
2022-11-05T05:27:31.627Z,101809.84
2022-11-05T05:30:01.022Z,101806.22
2022-11-05T05:32:32.504Z,101803.63
2022-11-05T05:35:00.958Z,101802.59
2022-11-05T05:37:29.148Z,101772.94
2022-11-05T05:39:57.431Z,101806.34
2022-11-05T05:42:25.758Z,101799.22
2022-11-05T05:44:55.507Z,101794.97
2022-11-05T05:47:23.786Z,101800.00
2022-11-05T05:49:53.169Z,101797.44
2022-11-05T05:52:21.584Z,101802.19
2022-11-05T05:54:49.849Z,101803.81
2022-11-05T05:57:18.292Z,101787.22
2022-11-05T05:59:46.586Z,101799.22
2022-11-05T06:02:16.325Z,101796.47
2022-11-05T06:04:44.607Z,101802.56
2022-11-05T06:07:13.058Z,101811.72
2022-11-05T06:09:41.316Z,101813.56
2022-11-05T06:12:09.699Z,101812.63
2022-11-05T06:14:38.032Z,101809.28
2022-11-05T06:17:08.291Z,101803.56
2022-11-05T06:19:38.233Z,101820.13
2022-11-05T06:22:06.507Z,101814.78
2022-11-05T06:24:34.739Z,101819.09
2022-11-05T06:27:03.005Z,101750.03
2022-11-05T06:29:31.315Z,101813.97
2022-11-05T06:31:59.865Z,101800.53
2022-11-05T06:34:28.064Z,101809.66
2022-11-05T06:36:57.785Z,101814.28
2022-11-05T06:39:26.412Z,101764.34
2022-11-05T06:42:17.155Z,101822.16
2022-11-05T06:44:43.014Z,101819.47
2022-11-05T06:47:11.935Z,101822.78
2022-11-05T06:49:40.174Z,101761.38
2022-11-05T06:52:09.865Z,101824.78
2022-11-05T06:54:38.129Z,101784.41
2022-11-05T06:57:09.513Z,101804.72
2022-11-05T06:59:38.190Z,101831.66
2022-11-05T07:02:07.192Z,101812.16
2022-11-05T07:04:35.574Z,101822.97
2022-11-05T07:07:04.118Z,101831.59
2022-11-05T07:09:34.333Z,101828.53
2022-11-05T07:12:02.828Z,101734.31
2022-11-05T07:14:31.066Z,101813.25
2022-11-05T07:16:59.643Z,101838.38
2022-11-05T07:19:28.068Z,101840.78
2022-11-05T07:21:56.355Z,101827.56
2022-11-05T07:24:24.620Z,101848.13
2022-11-05T07:26:54.315Z,101851.56
2022-11-05T07:29:22.582Z,101847.22
2022-11-05T07:31:50.839Z,101836.69
2022-11-05T07:34:19.152Z,101855.97
2022-11-05T07:36:47.401Z,101858.50
2022-11-05T07:39:15.657Z,101856.50
2022-11-05T07:41:44.063Z,101860.25
2022-11-05T07:44:14.484Z,101864.84
2022-11-05T07:46:43.016Z,101864.41
2022-11-05T07:49:11.369Z,101874.63
2022-11-05T07:51:39.635Z,101847.34
2022-11-05T07:54:08.039Z,101850.03
2022-11-05T07:56:36.537Z,101868.94
2022-11-05T07:59:05.208Z,101875.84
2022-11-05T08:01:35.046Z,101872.56
2022-11-05T08:04:03.414Z,101861.88
2022-11-05T08:06:32.419Z,101867.50
2022-11-05T08:09:01.010Z,101870.84
2022-11-05T08:11:29.724Z,101874.22
2022-11-05T08:13:58.052Z,101869.09
2022-11-05T08:16:26.506Z,101869.44
2022-11-05T08:18:56.131Z,101863.00
2022-11-05T08:21:24.538Z,101866.63
2022-11-05T08:23:52.796Z,101865.09
2022-11-05T08:26:21.214Z,101869.63
2022-11-05T08:28:49.459Z,101865.38
2022-11-05T08:31:18.209Z,101861.16
2022-11-05T08:33:46.858Z,101861.81
2022-11-05T08:36:16.603Z,101883.50
2022-11-05T08:38:45.295Z,101872.38
2022-11-05T08:41:13.989Z,101878.78
2022-11-05T08:43:42.288Z,101880.19
2022-11-05T08:46:10.528Z,101880.19
2022-11-05T08:48:38.777Z,101881.31
2022-11-05T08:51:07.525Z,101880.00
2022-11-05T08:53:37.387Z,101878.16
2022-11-05T08:56:06.130Z,101873.22
2022-11-05T08:58:34.529Z,101869.88
2022-11-05T09:01:06.288Z,101854.00
2022-11-05T09:03:34.750Z,101881.28
2022-11-05T09:06:03.416Z,101885.16
2022-11-05T09:08:32.059Z,101842.06
2022-11-05T09:11:01.876Z,101869.50
2022-11-05T09:13:30.225Z,101843.13
2022-11-05T09:16:00.084Z,101846.28
2022-11-05T09:18:28.999Z,101878.50
2022-11-05T09:20:57.487Z,101870.16
2022-11-05T09:23:25.952Z,101880.72
2022-11-05T09:25:54.750Z,101877.72
2022-11-05T09:28:25.514Z,101884.03
2022-11-05T09:30:54.512Z,101819.47
2022-11-05T09:33:26.572Z,101891.47
2022-11-05T09:35:55.280Z,101865.25
2022-11-05T09:38:23.649Z,101888.97
2022-11-05T09:40:59.217Z,101887.53
2022-11-05T09:43:38.008Z,101887.13
2022-11-05T09:46:16.314Z,101888.09
2022-11-05T09:48:49.211Z,101898.25
2022-11-05T09:51:23.748Z,101830.84
2022-11-05T09:53:53.638Z,101892.97
2022-11-05T09:56:26.240Z,101898.44
2022-11-05T09:59:00.688Z,101841.28
2022-11-05T10:01:33.099Z,101891.19
2022-11-05T10:04:07.879Z,101884.06
2022-11-05T10:06:38.038Z,101803.38
2022-11-05T10:09:14.748Z,101867.78
2022-11-05T10:11:49.462Z,101887.66
2022-11-05T10:14:25.696Z,101865.09
2022-11-05T10:17:02.412Z,101871.13
2022-11-05T10:19:40.720Z,101871.47
2022-11-05T10:22:16.223Z,101878.69
2022-11-05T10:24:48.131Z,101812.50
2022-11-05T10:27:23.211Z,101882.19
2022-11-05T10:29:53.400Z,101870.50
2022-11-05T10:32:30.002Z,101886.88
2022-11-05T10:35:03.103Z,101892.34
2022-11-05T10:37:36.987Z,101830.06
2022-11-05T10:40:30.150Z,101836.78
2022-11-05T10:43:06.296Z,101887.81
2022-11-05T10:49:30.201Z,101831.69
2022-11-05T10:52:01.070Z,101847.72
2022-11-05T10:54:35.783Z,101862.31
2022-11-05T10:57:33.593Z,101857.38
2022-11-05T11:00:23.799Z,101873.59
2022-11-05T11:02:55.383Z,101850.72
2022-11-05T11:05:30.101Z,101879.44
2022-11-05T11:08:04.356Z,101882.66
2022-11-05T11:10:40.336Z,101864.41
2022-11-05T11:13:22.090Z,101840.66
2022-11-05T11:15:51.252Z,101858.53
2022-11-05T11:18:34.648Z,101855.34
2022-11-05T11:21:16.155Z,101805.72
2022-11-05T11:23:54.086Z,101852.63
2022-11-05T11:26:22.852Z,101851.94
2022-11-05T11:28:57.678Z,101813.31
2022-11-05T11:31:29.191Z,101852.13
2022-11-05T11:34:03.538Z,101812.34
2022-11-05T11:36:44.677Z,101815.59
2022-11-05T11:39:20.581Z,101850.06
2022-11-05T11:41:54.121Z,101800.00
2022-11-05T11:44:27.232Z,101830.31
2022-11-05T11:47:01.127Z,101736.22
2022-11-05T11:49:45.509Z,101801.03
2022-11-05T11:52:18.626Z,101823.13
2022-11-05T11:54:47.035Z,101835.78
2022-11-05T11:57:27.186Z,101836.13
2022-11-05T12:00:13.670Z,101804.91
2022-11-05T12:03:10.194Z,101835.41
2022-11-05T12:05:48.186Z,101806.88
2022-11-05T12:08:45.636Z,101839.03
2022-11-05T12:11:22.323Z,101827.44
2022-11-05T12:14:02.140Z,101818.81
2022-11-05T12:16:46.160Z,101813.88
2022-11-05T12:19:32.925Z,101801.41
2022-11-05T12:22:11.532Z,101801.53
2022-11-05T12:25:09.222Z,101774.13
2022-11-05T12:27:56.554Z,101770.75
2022-11-05T12:30:25.352Z,101800.25
2022-11-05T12:33:21.853Z,101802.69
2022-11-05T12:36:08.184Z,101790.34
2022-11-05T12:39:05.582Z,101788.59
2022-11-05T12:41:47.685Z,101794.75
2022-11-05T12:44:51.166Z,101780.75
2022-11-05T12:47:37.861Z,101749.75
2022-11-05T12:50:21.731Z,101771.28
2022-11-05T12:53:38.531Z,101764.66
2022-11-05T12:56:19.912Z,101698.63
2022-11-05T12:58:59.147Z,101727.59
2022-11-05T13:01:36.454Z,101733.13
2022-11-05T13:04:14.486Z,101718.31
2022-11-05T13:06:49.411Z,101715.59
2022-11-05T13:09:25.733Z,101752.97
2022-11-05T13:11:58.412Z,101750.97
2022-11-05T13:14:33.480Z,101669.44
2022-11-05T13:17:06.276Z,101750.81
2022-11-05T13:19:43.209Z,101719.22
2022-11-05T13:22:21.200Z,101708.69
2022-11-05T13:24:52.074Z,101684.00
2022-11-05T13:27:44.851Z,101699.34
2022-11-05T13:30:21.801Z,101700.94
2022-11-05T13:32:59.429Z,101730.19
2022-11-05T13:35:33.003Z,101732.78
2022-11-05T13:38:27.261Z,101731.94
2022-11-05T13:41:15.377Z,101719.91
2022-11-05T13:44:05.256Z,101725.44
2022-11-05T13:47:04.109Z,101718.53
2022-11-05T13:50:13.398Z,101724.22
2022-11-05T13:53:20.076Z,101723.00
2022-11-05T13:56:07.760Z,101709.69
2022-11-05T13:59:06.066Z,101709.22
2022-11-05T14:01:50.260Z,101735.81
2022-11-05T14:04:32.021Z,101737.97
2022-11-05T14:07:13.839Z,101677.16
2022-11-05T14:09:43.484Z,101655.34
2022-11-05T14:12:24.148Z,101691.03
2022-11-05T14:14:59.134Z,101675.56
2022-11-05T14:17:34.933Z,101693.09
2022-11-05T14:21:00.176Z,101737.59
2022-11-05T14:23:54.579Z,101701.25
2022-11-05T14:26:26.296Z,101739.69
2022-11-05T14:29:22.870Z,101723.31
2022-11-05T14:32:11.034Z,101704.00
2022-11-05T14:35:04.284Z,101696.16
2022-11-05T14:37:37.048Z,101664.16
2022-11-05T14:40:29.610Z,101737.84
2022-11-05T14:43:01.418Z,101727.03
2022-11-05T14:45:33.611Z,101709.69
2022-11-05T14:48:03.897Z,101741.44
2022-11-05T14:50:38.872Z,101732.63
2022-11-05T14:53:26.151Z,101701.38
2022-11-05T14:56:03.334Z,101722.38
2022-11-05T14:58:36.489Z,101658.63
2022-11-05T15:01:08.287Z,101701.28
2022-11-05T15:04:03.826Z,101697.75
2022-11-05T15:06:36.396Z,101678.41
2022-11-05T15:09:34.940Z,101719.75
2022-11-05T15:12:17.634Z,101649.16
2022-11-05T15:14:56.973Z,101707.28
2022-11-05T15:17:30.338Z,101714.56
2022-11-05T15:20:11.404Z,101693.13
2022-11-05T15:22:44.731Z,101672.44
2022-11-05T15:25:19.844Z,101705.31
2022-11-05T15:28:05.325Z,101721.38
2022-11-05T15:30:34.047Z,101700.56
2022-11-05T15:33:21.687Z,101671.50
2022-11-05T15:35:50.018Z,101693.53
2022-11-05T15:38:31.633Z,101690.81
2022-11-05T15:41:03.549Z,101718.19
2022-11-05T15:43:32.289Z,101711.97
2022-11-05T15:46:09.732Z,101696.59
2022-11-05T15:48:38.306Z,101628.84
2022-11-05T15:51:07.204Z,101726.31
2022-11-05T15:56:52.486Z,101581.75
2022-11-05T15:59:23.321Z,101695.31
2022-11-05T16:01:56.636Z,101724.88
2022-11-05T16:04:29.833Z,101725.53
2022-11-05T16:07:01.621Z,101731.56
2022-11-05T16:09:34.715Z,101732.47
2022-11-05T16:12:26.073Z,101711.81
2022-11-05T16:15:00.594Z,101722.38
2022-11-05T16:17:33.296Z,101730.97
2022-11-05T16:20:01.730Z,101664.16
2022-11-05T16:22:46.018Z,101704.25
2022-11-05T16:25:43.033Z,101717.72
2022-11-05T16:28:24.180Z,101677.66
2022-11-05T16:30:58.156Z,101644.13
2022-11-05T16:33:32.413Z,101684.59
2022-11-05T16:36:00.794Z,101718.13
2022-11-05T16:38:29.471Z,101715.63
2022-11-05T16:41:00.386Z,101710.72
2022-11-05T16:43:28.916Z,101679.63
2022-11-05T16:46:01.196Z,101705.50
2022-11-05T16:48:29.772Z,101711.28
2022-11-05T16:50:58.072Z,101711.16
2022-11-05T16:53:26.796Z,101668.44
2022-11-05T16:55:55.138Z,101688.91
2022-11-05T16:58:27.041Z,101703.09
2022-11-05T17:01:03.783Z,101703.97
2022-11-05T17:03:32.370Z,101668.44
2022-11-05T17:06:00.709Z,101587.97
2022-11-05T17:08:29.174Z,101638.50
2022-11-05T17:10:57.510Z,101676.50
2022-11-05T17:13:27.097Z,101699.09
2022-11-05T17:15:55.420Z,101694.50
2022-11-05T17:18:24.154Z,101662.44
2022-11-05T17:20:55.327Z,101633.41
2022-11-05T17:23:28.818Z,101650.31
2022-11-05T17:26:02.983Z,101682.91
2022-11-05T17:28:33.910Z,101708.38
2022-11-05T17:31:03.418Z,101656.28
2022-11-05T17:33:32.392Z,101695.00
2022-11-05T17:36:01.017Z,101694.63
2022-11-05T17:38:29.313Z,101667.53
2022-11-05T17:40:57.613Z,101734.72
2022-11-05T17:43:26.047Z,101734.63
2022-11-05T17:46:01.562Z,101721.97
2022-11-05T17:48:32.575Z,101697.63
2022-11-05T17:51:00.831Z,101693.13
2022-11-05T17:53:29.281Z,101706.69
2022-11-05T17:55:58.233Z,101715.81
2022-11-05T17:58:26.555Z,101749.09
2022-11-05T18:00:56.277Z,101757.38
2022-11-05T18:03:24.880Z,101750.84
2022-11-05T18:05:53.315Z,101751.97
2022-11-05T18:08:21.620Z,101731.13
2022-11-05T18:10:49.890Z,101747.72
2022-11-05T18:13:18.294Z,101695.22
2022-11-05T18:15:46.635Z,101703.25
2022-11-05T18:18:16.901Z,101747.69
2022-11-05T18:20:46.070Z,101693.03
2022-11-05T18:23:14.873Z,101745.78
2022-11-05T18:25:44.212Z,101675.41
2022-11-05T18:28:12.826Z,101733.69
2022-11-05T18:30:41.712Z,101712.28
2022-11-05T18:33:10.280Z,101644.53
2022-11-05T18:35:44.457Z,101734.25
2022-11-05T18:38:13.377Z,101712.19
2022-11-05T18:40:42.032Z,101737.41
2022-11-05T18:43:10.763Z,101732.00
2022-11-05T18:45:39.345Z,101678.34
2022-11-05T18:48:08.235Z,101701.47
2022-11-05T18:50:36.658Z,101689.84
2022-11-05T18:53:06.639Z,101717.38
2022-11-05T18:55:35.300Z,101725.06
2022-11-05T18:58:03.827Z,101721.56
2022-11-05T19:00:32.876Z,101720.44
2022-11-05T19:03:01.285Z,101652.13
2022-11-05T19:05:30.606Z,101714.84
2022-11-05T19:07:59.023Z,101695.41
2022-11-05T19:10:29.175Z,101665.09
2022-11-05T19:12:57.830Z,101653.69
2022-11-05T19:15:26.152Z,101674.00
2022-11-05T19:17:54.560Z,101650.97
2022-11-05T19:20:22.927Z,101597.91
2022-11-05T19:22:51.360Z,101648.41
2022-11-05T19:25:19.822Z,101653.09
2022-11-05T19:27:49.589Z,101645.25
2022-11-05T19:30:18.021Z,101664.50
2022-11-05T19:32:46.426Z,101666.34
2022-11-05T19:35:14.677Z,101620.47
2022-11-05T19:37:43.255Z,101565.88
2022-11-05T19:40:13.491Z,101585.03
2022-11-05T19:42:41.906Z,101652.59
2022-11-05T19:45:38.136Z,101633.06
2022-11-05T19:48:01.160Z,101660.22
2022-11-05T19:50:29.479Z,101626.19
2022-11-05T19:52:57.931Z,101613.66
2022-11-05T19:55:26.621Z,101622.16
2022-11-05T19:57:55.108Z,101640.66
2022-11-05T20:00:24.948Z,101592.38
2022-11-05T20:02:53.415Z,101645.00
2022-11-05T20:05:21.990Z,101588.31
2022-11-05T20:07:52.995Z,101639.56
2022-11-05T20:10:22.385Z,101643.63
2022-11-05T20:12:50.795Z,101609.41
2022-11-05T20:15:19.874Z,101605.78
2022-11-05T20:17:55.003Z,101622.91
2022-11-05T20:20:23.818Z,101654.47
2022-11-05T20:22:53.755Z,101662.69
2022-11-05T20:25:22.118Z,101661.81
2022-11-05T20:27:50.603Z,101611.72
2022-11-05T20:30:19.855Z,101657.84
2022-11-05T20:32:48.457Z,101662.75
2022-11-05T20:35:18.418Z,101664.03
2022-11-05T20:37:51.248Z,101663.34
2022-11-05T20:40:22.705Z,101585.38
2022-11-05T20:42:50.976Z,101655.75
2022-11-05T20:45:19.540Z,101647.22
2022-11-05T20:47:47.944Z,101664.25
2022-11-05T20:50:17.854Z,101652.47
2022-11-05T20:52:46.154Z,101651.47
2022-11-05T20:55:14.601Z,101631.28
2022-11-05T20:57:42.921Z,101628.81
2022-11-05T21:00:13.603Z,101647.69
2022-11-05T21:02:42.281Z,101661.09
2022-11-05T21:05:11.000Z,101650.25
2022-11-05T21:07:40.809Z,101641.78
2022-11-05T21:10:09.641Z,101631.16
2022-11-05T21:12:37.973Z,101657.91
2022-11-05T21:15:08.526Z,101662.22
2022-11-05T21:17:37.531Z,101666.19
2022-11-05T21:20:07.487Z,101595.59
2022-11-05T21:22:35.967Z,101629.06
2022-11-05T21:25:06.641Z,101659.50
2022-11-05T21:27:34.961Z,101651.06
2022-11-05T21:30:03.358Z,101665.97
2022-11-05T21:32:34.213Z,101654.50
2022-11-05T21:35:02.844Z,101651.16
2022-11-05T21:37:31.120Z,101637.25
2022-11-05T21:39:59.389Z,101626.44
2022-11-05T21:42:30.523Z,101649.72
2022-11-05T21:45:00.591Z,101606.53
2022-11-05T21:47:30.586Z,101597.50
2022-11-05T21:49:58.945Z,101639.81
2022-11-05T21:52:44.773Z,101640.72
2022-11-05T21:55:36.355Z,101606.03
2022-11-05T21:58:30.913Z,101589.16
2022-11-05T22:00:59.239Z,101584.66
2022-11-05T22:03:27.616Z,101606.97
2022-11-05T22:05:58.197Z,101612.19
2022-11-05T22:08:27.244Z,101627.44
2022-11-05T22:10:55.741Z,101605.94
2022-11-05T22:13:25.439Z,101625.72
2022-11-05T22:15:57.328Z,101621.56
2022-11-05T22:18:25.651Z,101517.59
2022-11-05T22:20:53.881Z,101626.91
2022-11-05T22:23:22.277Z,101631.38
2022-11-05T22:25:50.658Z,101622.66
2022-11-05T22:28:18.988Z,101603.97
2022-11-05T22:30:48.658Z,101569.59
2022-11-05T22:33:17.138Z,101619.44
2022-11-05T22:35:45.411Z,101458.59
2022-11-05T22:38:14.106Z,101578.63
2022-11-05T22:40:42.781Z,101553.78
2022-11-05T22:43:11.225Z,101609.50
2022-11-05T22:45:39.559Z,101606.78
2022-11-05T22:48:09.366Z,101601.69
2022-11-05T22:50:38.197Z,101581.69
2022-11-05T22:53:06.851Z,101578.09
2022-11-05T22:55:39.618Z,101508.84
2022-11-05T22:58:08.118Z,101542.69
2022-11-05T23:00:39.250Z,101595.47
2022-11-05T23:03:09.138Z,101554.56
2022-11-05T23:05:37.569Z,101594.47
2022-11-05T23:08:24.135Z,101407.22
2022-11-05T23:11:10.084Z,101573.09
2022-11-05T23:13:38.590Z,101600.16
2022-11-05T23:16:25.949Z,101582.91
2022-11-05T23:19:12.866Z,101565.88
2022-11-05T23:21:58.615Z,101597.56
2022-11-05T23:24:26.940Z,101578.28
2022-11-05T23:26:57.354Z,101582.78
2022-11-05T23:29:27.775Z,101549.06
2022-11-05T23:32:14.194Z,101570.00
2022-11-05T23:34:43.859Z,101559.97
2022-11-05T23:37:29.681Z,101550.38
2022-11-05T23:39:58.123Z,101518.66
2022-11-05T23:42:44.212Z,101563.41
2022-11-05T23:45:30.597Z,101555.50
2022-11-05T23:48:17.516Z,101569.69
2022-11-05T23:50:52.542Z,101548.63
2022-11-05T23:53:20.934Z,101516.03
2022-11-05T23:55:49.842Z,101570.13
2022-11-05T23:58:19.300Z,101572.28
